sensor_id;sensor_type;location;lat;lon;timestamp;pressure;altitude;pressure_sealevel;temperature;humidity
48555;BME280;34336;48.270;16.716;2023-01-31T00:01:33;77095.19;;;18.16;67.84
48555;BME280;34336;48.270;16.716;2023-01-31T00:04:03;77087.47;;;18.16;67.81
48555;BME280;34336;48.270;16.716;2023-01-31T00:06:33;77083.59;;;18.16;67.63
48555;BME280;34336;48.270;16.716;2023-01-31T00:09:01;77079.75;;;18.16;67.45
48555;BME280;34336;48.270;16.716;2023-01-31T00:11:29;77068.19;;;18.16;67.68
48555;BME280;34336;48.270;16.716;2023-01-31T00:14:00;77070.13;;;18.16;67.42
48555;BME280;34336;48.270;16.716;2023-01-31T00:16:27;77056.63;;;18.16;66.63
48555;BME280;34336;48.270;16.716;2023-01-31T00:18:54;77058.56;;;18.16;66.64
48555;BME280;34336;48.270;16.716;2023-01-31T00:21:26;77064.34;;;18.16;66.64
48555;BME280;34336;48.270;16.716;2023-01-31T00:23:53;77056.63;;;18.16;66.25
48555;BME280;34336;48.270;16.716;2023-01-31T00:26:27;77066.25;;;18.16;66.73
48555;BME280;34336;48.270;16.716;2023-01-31T00:28:57;77072.03;;;18.16;66.91
48555;BME280;34336;48.270;16.716;2023-01-31T00:31:25;77079.75;;;18.16;67.15
48555;BME280;34336;48.270;16.716;2023-01-31T00:33:53;77064.34;;;18.16;67.02
48555;BME280;34336;48.270;16.716;2023-01-31T00:36:22;77066.25;;;18.16;67.28
48555;BME280;34336;48.270;16.716;2023-01-31T00:38:53;77075.91;;;18.16;67.63
48555;BME280;34336;48.270;16.716;2023-01-31T00:41:24;77075.91;;;18.16;67.88
48555;BME280;34336;48.270;16.716;2023-01-31T00:43:51;77089.38;;;18.16;68.32
48555;BME280;34336;48.270;16.716;2023-01-31T00:46:17;77091.31;;;18.16;68.59
48555;BME280;34336;48.270;16.716;2023-01-31T00:48:48;77091.31;;;18.16;69.08
48555;BME280;34336;48.270;16.716;2023-01-31T00:51:16;77097.09;;;18.16;69.99
48555;BME280;34336;48.270;16.716;2023-01-31T00:53:42;77102.88;;;18.16;70.34
48555;BME280;34336;48.270;16.716;2023-01-31T00:56:12;77110.59;;;18.16;70.88
48555;BME280;34336;48.270;16.716;2023-01-31T00:58:40;77120.22;;;18.16;71.06
48555;BME280;34336;48.270;16.716;2023-01-31T01:01:33;77108.66;;;18.16;71.09
48555;BME280;34336;48.270;16.716;2023-01-31T01:04:01;77114.44;;;18.16;70.91
48555;BME280;34336;48.270;16.716;2023-01-31T01:06:31;77124.09;;;18.16;71.59
48555;BME280;34336;48.270;16.716;2023-01-31T01:08:59;77126.00;;;18.16;71.59
48555;BME280;34336;48.270;16.716;2023-01-31T01:11:30;77131.78;;;18.16;72.14
48555;BME280;34336;48.270;16.716;2023-01-31T01:13:58;77137.56;;;18.16;72.48
48555;BME280;34336;48.270;16.716;2023-01-31T01:16:31;77145.28;;;18.16;72.20
48555;BME280;34336;48.270;16.716;2023-01-31T01:19:00;77145.28;;;18.16;72.19
48555;BME280;34336;48.270;16.716;2023-01-31T01:21:29;77145.28;;;18.16;72.23
48555;BME280;34336;48.270;16.716;2023-01-31T01:23:59;77141.44;;;18.16;72.14
48555;BME280;34336;48.270;16.716;2023-01-31T01:26:31;77141.44;;;18.16;71.72
48555;BME280;34336;48.270;16.716;2023-01-31T01:28:59;77160.69;;;18.16;72.04
48555;BME280;34336;48.270;16.716;2023-01-31T01:31:28;77149.13;;;18.16;71.64
48555;BME280;34336;48.270;16.716;2023-01-31T01:34:22;77145.28;;;18.16;71.27
48555;BME280;34336;48.270;16.716;2023-01-31T01:36:48;77141.44;;;18.16;70.74
48555;BME280;34336;48.270;16.716;2023-01-31T01:39:17;77133.72;;;18.16;70.22
48555;BME280;34336;48.270;16.716;2023-01-31T01:41:45;77133.72;;;18.16;70.37
48555;BME280;34336;48.270;16.716;2023-01-31T01:44:44;77133.72;;;18.16;70.13
48555;BME280;34336;48.270;16.716;2023-01-31T01:50:23;77141.44;;;18.16;70.52
48555;BME280;34336;48.270;16.716;2023-01-31T01:52:54;77147.22;;;18.16;70.62
48555;BME280;34336;48.270;16.716;2023-01-31T01:55:41;77143.34;;;18.16;70.06
48555;BME280;34336;48.270;16.716;2023-01-31T01:58:22;77147.22;;;18.16;69.68
48555;BME280;34336;48.270;16.716;2023-01-31T02:00:50;77153.00;;;18.16;69.51
48555;BME280;34336;48.270;16.716;2023-01-31T02:03:17;77156.84;;;18.16;69.29
48555;BME280;34336;48.270;16.716;2023-01-31T02:05:46;77176.13;;;18.16;69.82
48555;BME280;34336;48.270;16.716;2023-01-31T02:08:18;77149.13;;;18.16;69.43
48555;BME280;34336;48.270;16.716;2023-01-31T02:13:18;77135.66;;;18.16;68.96
48555;BME280;34336;48.270;16.716;2023-01-31T02:15:46;77133.72;;;18.16;68.84
48555;BME280;34336;48.270;16.716;2023-01-31T02:18:13;77126.00;;;18.16;68.55
48555;BME280;34336;48.270;16.716;2023-01-31T02:24:21;77131.78;;;18.16;68.39
48555;BME280;34336;48.270;16.716;2023-01-31T02:29:50;77153.00;;;18.16;70.13
48555;BME280;34336;48.270;16.716;2023-01-31T02:43:21;77145.28;;;18.16;71.46
48555;BME280;34336;48.270;16.716;2023-01-31T02:46:11;77149.13;;;18.16;71.57
48555;BME280;34336;48.270;16.716;2023-01-31T02:48:54;77160.69;;;18.16;71.77
48555;BME280;34336;48.270;16.716;2023-01-31T02:51:24;77166.47;;;18.16;71.56
48555;BME280;34336;48.270;16.716;2023-01-31T02:54:20;77164.56;;;18.16;71.75
48555;BME280;34336;48.270;16.716;2023-01-31T02:56:49;77172.28;;;18.16;71.54
48555;BME280;34336;48.270;16.716;2023-01-31T02:59:20;77187.69;;;18.16;71.88
48555;BME280;34336;48.270;16.716;2023-01-31T03:01:58;77191.53;;;18.16;72.42
48555;BME280;34336;48.270;16.716;2023-01-31T03:04:31;77183.84;;;18.16;72.63
48555;BME280;34336;48.270;16.716;2023-01-31T03:07:07;77193.47;;;18.16;73.19
48555;BME280;34336;48.270;16.716;2023-01-31T03:16:10;77214.66;;;18.16;73.21
48555;BME280;34336;48.270;16.716;2023-01-31T03:21:36;77228.16;;;18.16;73.83
48555;BME280;34336;48.270;16.716;2023-01-31T03:24:05;77226.22;;;18.16;73.03
48555;BME280;34336;48.270;16.716;2023-01-31T03:26:34;77235.88;;;18.16;73.28
48555;BME280;34336;48.270;16.716;2023-01-31T03:29:02;77253.22;;;18.16;73.17
48555;BME280;34336;48.270;16.716;2023-01-31T03:31:36;77260.94;;;18.16;73.49
48555;BME280;34336;48.270;16.716;2023-01-31T03:34:07;77274.41;;;18.16;74.18
48555;BME280;34336;48.270;16.716;2023-01-31T03:36:48;77268.63;;;18.16;74.60
48555;BME280;34336;48.270;16.716;2023-01-31T03:42:36;77285.97;;;18.16;74.70
48555;BME280;34336;48.270;16.716;2023-01-31T03:45:11;77287.91;;;18.16;75.15
48555;BME280;34336;48.270;16.716;2023-01-31T03:47:43;77280.19;;;18.16;74.69
48555;BME280;34336;48.270;16.716;2023-01-31T03:50:19;77285.97;;;18.16;74.30
48555;BME280;34336;48.270;16.716;2023-01-31T03:52:59;77299.47;;;18.16;74.67
48555;BME280;34336;48.270;16.716;2023-01-31T03:55:33;77307.19;;;18.16;74.79
48555;BME280;34336;48.270;16.716;2023-01-31T03:58:04;77291.75;;;18.16;74.76
48555;BME280;34336;48.270;16.716;2023-01-31T04:00:34;77295.63;;;18.16;74.41
48555;BME280;34336;48.270;16.716;2023-01-31T04:03:20;77301.41;;;18.16;75.00
48555;BME280;34336;48.270;16.716;2023-01-31T04:05:49;77287.91;;;18.16;74.28
48555;BME280;34336;48.270;16.716;2023-01-31T04:08:19;77284.06;;;18.16;73.88
48555;BME280;34336;48.270;16.716;2023-01-31T04:10:56;77276.34;;;18.16;72.81
48555;BME280;34336;48.270;16.716;2023-01-31T04:13:24;77272.50;;;18.16;72.59
48555;BME280;34336;48.270;16.716;2023-01-31T04:15:50;77264.78;;;18.16;71.85
48555;BME280;34336;48.270;16.716;2023-01-31T04:18:17;77251.28;;;18.16;71.48
48555;BME280;34336;48.270;16.716;2023-01-31T04:20:44;77253.22;;;18.16;71.30
48555;BME280;34336;48.270;16.716;2023-01-31T04:23:10;77257.06;;;18.16;71.33
48555;BME280;34336;48.270;16.716;2023-01-31T04:25:38;77260.94;;;18.16;71.21
48555;BME280;34336;48.270;16.716;2023-01-31T04:28:04;77245.50;;;18.16;70.57
48555;BME280;34336;48.270;16.716;2023-01-31T04:30:31;77251.28;;;18.16;70.46
48555;BME280;34336;48.270;16.716;2023-01-31T04:32:58;77249.38;;;18.16;69.93
48555;BME280;34336;48.270;16.716;2023-01-31T04:35:25;77259.00;;;18.16;70.37
48555;BME280;34336;48.270;16.716;2023-01-31T04:37:52;77260.94;;;18.16;70.08
48555;BME280;34336;48.270;16.716;2023-01-31T04:40:18;77253.22;;;18.16;69.64
48555;BME280;34336;48.270;16.716;2023-01-31T04:42:45;77257.06;;;18.16;70.49
48555;BME280;34336;48.270;16.716;2023-01-31T04:45:12;77280.19;;;18.16;71.93
48555;BME280;34336;48.270;16.716;2023-01-31T04:47:38;77326.47;;;18.16;76.36
48555;BME280;34336;48.270;16.716;2023-01-31T04:50:05;77353.44;;;18.16;78.50
48555;BME280;34336;48.270;16.716;2023-01-31T04:52:33;77361.16;;;18.16;79.93
48555;BME280;34336;48.270;16.716;2023-01-31T04:55:00;77372.72;;;18.16;81.37
48555;BME280;34336;48.270;16.716;2023-01-31T04:57:26;77386.22;;;18.16;82.31
48555;BME280;34336;48.270;16.716;2023-01-31T04:59:53;77390.06;;;18.16;83.24
48555;BME280;34336;48.270;16.716;2023-01-31T05:02:19;77401.63;;;18.16;83.98
48555;BME280;34336;48.270;16.716;2023-01-31T05:04:48;77399.69;;;18.16;83.82
48555;BME280;34336;48.270;16.716;2023-01-31T05:07:15;77393.91;;;18.16;83.80
48555;BME280;34336;48.270;16.716;2023-01-31T05:09:41;77392.00;;;18.16;83.47
48555;BME280;34336;48.270;16.716;2023-01-31T05:12:09;77384.28;;;18.16;83.24
48555;BME280;34336;48.270;16.716;2023-01-31T05:14:36;77388.13;;;18.16;83.05
48555;BME280;34336;48.270;16.716;2023-01-31T05:17:02;77388.13;;;18.16;82.59
48555;BME280;34336;48.270;16.716;2023-01-31T05:19:30;77384.28;;;18.16;82.26
48555;BME280;34336;48.270;16.716;2023-01-31T05:21:56;77392.00;;;18.16;82.37
48555;BME280;34336;48.270;16.716;2023-01-31T05:24:29;77388.13;;;18.16;82.44
48555;BME280;34336;48.270;16.716;2023-01-31T05:26:58;77392.00;;;18.16;81.91
48555;BME280;34336;48.270;16.716;2023-01-31T05:29:27;77399.69;;;18.16;81.93
48555;BME280;34336;48.270;16.716;2023-01-31T05:31:55;77403.56;;;18.16;82.02
48555;BME280;34336;48.270;16.716;2023-01-31T05:34:23;77403.56;;;18.16;81.67
48555;BME280;34336;48.270;16.716;2023-01-31T05:36:55;77395.84;;;18.16;81.71
48555;BME280;34336;48.270;16.716;2023-01-31T05:39:22;77393.91;;;18.16;80.48
48555;BME280;34336;48.270;16.716;2023-01-31T05:41:49;77382.34;;;18.16;79.60
48555;BME280;34336;48.270;16.716;2023-01-31T05:44:16;77374.66;;;18.16;78.55
48555;BME280;34336;48.270;16.716;2023-01-31T05:46:42;77372.72;;;18.16;78.61
48555;BME280;34336;48.270;16.716;2023-01-31T05:49:09;77374.66;;;18.16;78.24
48555;BME280;34336;48.270;16.716;2023-01-31T05:51:36;77355.38;;;18.16;76.48
48555;BME280;34336;48.270;16.716;2023-01-31T05:54:03;77361.16;;;18.16;76.21
48555;BME280;34336;48.270;16.716;2023-01-31T05:56:29;77353.44;;;18.16;76.11
48555;BME280;34336;48.270;16.716;2023-01-31T05:58:56;77361.16;;;18.16;75.66
48555;BME280;34336;48.270;16.716;2023-01-31T06:01:24;77361.16;;;18.16;75.13
48555;BME280;34336;48.270;16.716;2023-01-31T06:03:51;77361.16;;;18.16;74.47
48555;BME280;34336;48.270;16.716;2023-01-31T06:06:18;77345.72;;;18.16;73.04
48555;BME280;34336;48.270;16.716;2023-01-31T06:08:47;77349.59;;;18.16;72.47
48555;BME280;34336;48.270;16.716;2023-01-31T06:11:14;77345.72;;;18.16;72.27
48555;BME280;34336;48.270;16.716;2023-01-31T06:13:41;77365.00;;;18.16;71.72
48555;BME280;34336;48.270;16.716;2023-01-31T06:16:11;77378.50;;;18.16;71.64
48555;BME280;34336;48.270;16.716;2023-01-31T06:18:38;77384.28;;;18.16;73.65
48555;BME280;34336;48.270;16.716;2023-01-31T06:21:05;77428.63;;;18.16;75.85
48555;BME280;34336;48.270;16.716;2023-01-31T06:23:31;77451.75;;;18.16;77.45
48555;BME280;34336;48.270;16.716;2023-01-31T06:25:59;77484.50;;;18.16;79.31
48555;BME280;34336;48.270;16.716;2023-01-31T06:28:26;77480.66;;;18.16;80.14
48555;BME280;34336;48.270;16.716;2023-01-31T06:30:53;77480.66;;;18.16;80.12
48555;BME280;34336;48.270;16.716;2023-01-31T06:33:20;77490.28;;;18.16;80.04
48555;BME280;34336;48.270;16.716;2023-01-31T06:36:00;77480.66;;;18.16;78.58
48555;BME280;34336;48.270;16.716;2023-01-31T06:38:27;77469.09;;;18.16;77.29
48555;BME280;34336;48.270;16.716;2023-01-31T06:40:54;77461.38;;;18.16;77.03
48555;BME280;34336;48.270;16.716;2023-01-31T06:43:21;77453.69;;;18.16;76.67
48555;BME280;34336;48.270;16.716;2023-01-31T06:45:48;77457.53;;;18.16;75.93
48555;BME280;34336;48.270;16.716;2023-01-31T06:48:17;77415.13;;;18.16;74.29
48555;BME280;34336;48.270;16.716;2023-01-31T06:50:45;77401.63;;;18.16;73.57
48555;BME280;34336;48.270;16.716;2023-01-31T06:53:12;77397.78;;;18.16;73.28
48555;BME280;34336;48.270;16.716;2023-01-31T06:55:38;77407.41;;;18.16;73.41
48555;BME280;34336;48.270;16.716;2023-01-31T06:58:05;77393.91;;;18.16;72.84
48555;BME280;34336;48.270;16.716;2023-01-31T07:00:31;77392.00;;;18.16;72.94
48555;BME280;34336;48.270;16.716;2023-01-31T07:02:58;77403.56;;;18.16;73.38
48555;BME280;34336;48.270;16.716;2023-01-31T07:05:25;77418.97;;;18.16;73.78
48555;BME280;34336;48.270;16.716;2023-01-31T07:07:51;77426.69;;;18.16;74.19
48555;BME280;34336;48.270;16.716;2023-01-31T07:10:18;77407.41;;;18.16;73.46
48555;BME280;34336;48.270;16.716;2023-01-31T07:12:45;77407.41;;;18.16;73.78
48555;BME280;34336;48.270;16.716;2023-01-31T07:15:12;77405.47;;;18.16;73.92
48555;BME280;34336;48.270;16.716;2023-01-31T07:17:39;77422.84;;;18.16;74.42
48555;BME280;34336;48.270;16.716;2023-01-31T07:20:06;77418.97;;;18.16;73.63
48555;BME280;34336;48.270;16.716;2023-01-31T07:22:33;77420.91;;;18.16;73.67
48555;BME280;34336;48.270;16.716;2023-01-31T07:25:00;77436.31;;;18.16;73.86
48555;BME280;34336;48.270;16.716;2023-01-31T07:27:26;77436.31;;;18.16;73.63
48555;BME280;34336;48.270;16.716;2023-01-31T07:29:53;77434.41;;;18.16;74.13
48555;BME280;34336;48.270;16.716;2023-01-31T07:32:20;77449.81;;;18.16;75.68
48555;BME280;34336;48.270;16.716;2023-01-31T07:34:46;77474.88;;;18.16;78.32
48555;BME280;34336;48.270;16.716;2023-01-31T07:37:13;77503.78;;;18.16;80.86
48555;BME280;34336;48.270;16.716;2023-01-31T07:39:40;77519.22;;;18.16;82.70
48555;BME280;34336;48.270;16.716;2023-01-31T07:42:06;77521.13;;;18.16;83.71
48555;BME280;34336;48.270;16.716;2023-01-31T07:44:33;77519.22;;;18.16;83.46
48555;BME280;34336;48.270;16.716;2023-01-31T07:46:59;77523.06;;;18.16;83.50
48555;BME280;34336;48.270;16.716;2023-01-31T07:49:26;77523.06;;;18.16;83.36
48555;BME280;34336;48.270;16.716;2023-01-31T07:51:53;77530.78;;;18.16;83.42
48555;BME280;34336;48.270;16.716;2023-01-31T07:54:19;77525.00;;;18.16;83.07
48555;BME280;34336;48.270;16.716;2023-01-31T07:56:46;77515.34;;;18.16;82.96
48555;BME280;34336;48.270;16.716;2023-01-31T07:59:13;77519.22;;;18.16;82.57
48555;BME280;34336;48.270;16.716;2023-01-31T08:01:39;77521.13;;;18.16;82.21
48555;BME280;34336;48.270;16.716;2023-01-31T08:04:24;77517.28;;;18.16;80.82
48555;BME280;34336;48.270;16.716;2023-01-31T08:06:53;77503.78;;;18.16;79.80
48555;BME280;34336;48.270;16.716;2023-01-31T08:09:28;77484.50;;;18.16;78.31
48555;BME280;34336;48.270;16.716;2023-01-31T08:11:56;77478.72;;;18.16;76.75
48555;BME280;34336;48.270;16.716;2023-01-31T08:14:22;77461.38;;;18.16;75.94
48555;BME280;34336;48.270;16.716;2023-01-31T08:16:51;77442.09;;;18.16;75.32
48555;BME280;34336;48.270;16.716;2023-01-31T08:19:18;77430.53;;;18.16;74.35
48555;BME280;34336;48.270;16.716;2023-01-31T08:21:44;77418.97;;;18.16;73.44
48555;BME280;34336;48.270;16.716;2023-01-31T08:24:11;77411.25;;;18.16;73.11
48555;BME280;34336;48.270;16.716;2023-01-31T08:26:38;77395.84;;;18.16;72.12
48555;BME280;34336;48.270;16.716;2023-01-31T08:29:04;77395.84;;;18.16;70.75
48555;BME280;34336;48.270;16.716;2023-01-31T08:31:31;77376.56;;;18.16;70.21
48555;BME280;34336;48.270;16.716;2023-01-31T08:33:58;77361.16;;;18.16;70.15
48555;BME280;34336;48.270;16.716;2023-01-31T08:36:27;77336.09;;;18.16;69.95
48555;BME280;34336;48.270;16.716;2023-01-31T08:38:57;77334.16;;;18.16;69.04
48555;BME280;34336;48.270;16.716;2023-01-31T08:41:25;77314.91;;;18.16;68.81
48555;BME280;34336;48.270;16.716;2023-01-31T08:43:53;77334.16;;;18.16;68.39
48555;BME280;34336;48.270;16.716;2023-01-31T08:46:25;77341.88;;;18.16;68.20
48555;BME280;34336;48.270;16.716;2023-01-31T08:48:53;77345.72;;;18.16;67.76
48555;BME280;34336;48.270;16.716;2023-01-31T08:51:20;77341.88;;;18.16;66.94
48555;BME280;34336;48.270;16.716;2023-01-31T08:53:47;77320.69;;;18.16;67.23
48555;BME280;34336;48.270;16.716;2023-01-31T08:56:15;77307.19;;;18.16;66.44
48555;BME280;34336;48.270;16.716;2023-01-31T08:58:42;77301.41;;;18.16;65.91
48555;BME280;34336;48.270;16.716;2023-01-31T09:01:14;77287.91;;;18.16;66.00
48555;BME280;34336;48.270;16.716;2023-01-31T09:03:43;77287.91;;;18.16;64.16
48555;BME280;34336;48.270;16.716;2023-01-31T09:06:17;77297.53;;;18.16;63.95
48555;BME280;34336;48.270;16.716;2023-01-31T09:08:44;77280.19;;;18.16;63.76
48555;BME280;34336;48.270;16.716;2023-01-31T09:11:11;77284.06;;;18.16;63.24
48555;BME280;34336;48.270;16.716;2023-01-31T09:13:43;77276.34;;;18.16;62.88
48555;BME280;34336;48.270;16.716;2023-01-31T09:16:11;77264.78;;;18.16;62.72
48555;BME280;34336;48.270;16.716;2023-01-31T09:18:39;77274.41;;;18.16;62.26
48555;BME280;34336;48.270;16.716;2023-01-31T09:21:10;77274.41;;;18.16;62.90
48555;BME280;34336;48.270;16.716;2023-01-31T09:23:37;77272.50;;;18.16;62.29
48555;BME280;34336;48.270;16.716;2023-01-31T09:26:08;77268.63;;;18.16;61.37
48555;BME280;34336;48.270;16.716;2023-01-31T09:28:35;77272.50;;;18.16;61.81
48555;BME280;34336;48.270;16.716;2023-01-31T09:31:07;77268.63;;;18.16;62.04
48555;BME280;34336;48.270;16.716;2023-01-31T09:33:34;77270.56;;;18.16;61.76
48555;BME280;34336;48.270;16.716;2023-01-31T09:36:09;77260.94;;;18.16;62.08
48555;BME280;34336;48.270;16.716;2023-01-31T09:38:36;77268.63;;;18.16;61.75
48555;BME280;34336;48.270;16.716;2023-01-31T09:41:05;77260.94;;;18.16;61.89
48555;BME280;34336;48.270;16.716;2023-01-31T09:43:39;77249.38;;;18.16;61.55
48555;BME280;34336;48.270;16.716;2023-01-31T09:46:15;77255.16;;;18.16;61.71
48555;BME280;34336;48.270;16.716;2023-01-31T09:48:48;77260.94;;;18.16;61.75
48555;BME280;34336;48.270;16.716;2023-01-31T09:51:17;77264.78;;;18.16;60.53
48555;BME280;34336;48.270;16.716;2023-01-31T09:53:44;77257.06;;;18.16;61.00
48555;BME280;34336;48.270;16.716;2023-01-31T09:56:20;77270.56;;;18.16;60.67
48555;BME280;34336;48.270;16.716;2023-01-31T09:59:24;77264.78;;;18.16;60.57
48555;BME280;34336;48.270;16.716;2023-01-31T10:02:02;77268.63;;;18.16;60.24
48555;BME280;34336;48.270;16.716;2023-01-31T10:10:36;77266.72;;;18.16;59.69
48555;BME280;34336;48.270;16.716;2023-01-31T10:13:30;77260.94;;;18.16;59.46
48555;BME280;34336;48.270;16.716;2023-01-31T10:16:04;77224.31;;;18.16;nan
48555;BME280;34336;48.270;16.716;2023-01-31T10:18:41;77235.88;;;18.16;59.17
48555;BME280;34336;48.270;16.716;2023-01-31T10:21:22;77241.66;;;18.16;58.97
48555;BME280;34336;48.270;16.716;2023-01-31T10:23:58;77247.44;;;18.16;59.05
48555;BME280;34336;48.270;16.716;2023-01-31T10:26:30;77249.38;;;18.16;58.28
48555;BME280;34336;48.270;16.716;2023-01-31T10:29:32;77253.22;;;18.16;58.56
48555;BME280;34336;48.270;16.716;2023-01-31T10:31:59;77249.38;;;18.16;59.03
48555;BME280;34336;48.270;16.716;2023-01-31T10:34:29;77245.50;;;18.16;58.35
48555;BME280;34336;48.270;16.716;2023-01-31T10:39:32;77230.09;;;18.16;57.46
48555;BME280;34336;48.270;16.716;2023-01-31T10:47:31;77233.94;;;18.16;56.60
48555;BME280;34336;48.270;16.716;2023-01-31T10:49:58;77226.22;;;18.16;57.37
48555;BME280;34336;48.270;16.716;2023-01-31T10:52:39;77222.38;;;18.16;57.22
48555;BME280;34336;48.270;16.716;2023-01-31T10:55:32;77206.97;;;18.16;57.19
48555;BME280;34336;48.270;16.716;2023-01-31T10:58:01;77203.09;;;18.16;56.56
48555;BME280;34336;48.270;16.716;2023-01-31T11:00:30;77201.19;;;18.16;56.24
48555;BME280;34336;48.270;16.716;2023-01-31T11:02:58;77164.56;;;18.16;56.34
48555;BME280;34336;48.270;16.716;2023-01-31T11:05:27;77172.28;;;18.16;55.50
48555;BME280;34336;48.270;16.716;2023-01-31T11:07:58;77158.78;;;18.16;55.62
48555;BME280;34336;48.270;16.716;2023-01-31T11:10:28;77164.56;;;18.16;55.51
48555;BME280;34336;48.270;16.716;2023-01-31T11:13:00;77154.91;;;18.16;55.49
48555;BME280;34336;48.270;16.716;2023-01-31T11:15:40;77156.84;;;18.16;55.47
48555;BME280;34336;48.270;16.716;2023-01-31T11:18:24;77168.41;;;18.16;54.30
48555;BME280;34336;48.270;16.716;2023-01-31T11:20:51;77153.00;;;18.16;54.82
48555;BME280;34336;48.270;16.716;2023-01-31T11:23:22;77153.00;;;18.16;54.91
48555;BME280;34336;48.270;16.716;2023-01-31T11:25:50;77141.44;;;18.16;54.54
48555;BME280;34336;48.270;16.716;2023-01-31T11:28:37;77141.44;;;18.16;54.93
48555;BME280;34336;48.270;16.716;2023-01-31T11:31:18;77133.72;;;18.16;54.64
48555;BME280;34336;48.270;16.716;2023-01-31T11:33:57;77133.72;;;18.16;54.24
48555;BME280;34336;48.270;16.716;2023-01-31T11:36:24;77122.16;;;18.16;54.24
48555;BME280;34336;48.270;16.716;2023-01-31T11:38:53;77116.38;;;18.16;54.06
48555;BME280;34336;48.270;16.716;2023-01-31T11:41:35;77106.75;;;18.16;53.48
48555;BME280;34336;48.270;16.716;2023-01-31T11:44:19;77100.97;;;18.16;53.18
48555;BME280;34336;48.270;16.716;2023-01-31T11:46:53;77091.31;;;18.16;53.52
48555;BME280;34336;48.270;16.716;2023-01-31T11:49:29;77100.97;;;18.16;53.14
48555;BME280;34336;48.270;16.716;2023-01-31T11:52:02;77118.31;;;18.16;52.74
48555;BME280;34336;48.270;16.716;2023-01-31T11:54:39;77095.19;;;18.16;53.34
48555;BME280;34336;48.270;16.716;2023-01-31T11:57:35;77093.25;;;18.16;52.52
48555;BME280;34336;48.270;16.716;2023-01-31T12:00:04;77106.75;;;18.16;52.11
48555;BME280;34336;48.270;16.716;2023-01-31T12:02:35;77091.31;;;18.16;51.92
48555;BME280;34336;48.270;16.716;2023-01-31T12:05:11;77083.59;;;18.16;51.76
48555;BME280;34336;48.270;16.716;2023-01-31T12:07:44;77064.34;;;18.16;51.83
48555;BME280;34336;48.270;16.716;2023-01-31T12:10:39;77079.75;;;18.16;52.17
48555;BME280;34336;48.270;16.716;2023-01-31T12:13:18;77095.19;;;18.16;50.97
48555;BME280;34336;48.270;16.716;2023-01-31T12:15:55;77110.59;;;18.16;50.52
48555;BME280;34336;48.270;16.716;2023-01-31T12:18:49;77097.09;;;18.16;50.64
48555;BME280;34336;48.270;16.716;2023-01-31T12:26:59;77100.97;;;18.16;50.63
48555;BME280;34336;48.270;16.716;2023-01-31T12:33:11;77097.09;;;18.16;50.30
48555;BME280;34336;48.270;16.716;2023-01-31T12:36:10;77110.59;;;18.16;49.88
48555;BME280;34336;48.270;16.716;2023-01-31T12:38:33;77102.88;;;18.16;50.13
48555;BME280;34336;48.270;16.716;2023-01-31T12:46:42;77075.91;;;18.16;49.42
48555;BME280;34336;48.270;16.716;2023-01-31T12:57:32;77079.75;;;18.16;49.01
48555;BME280;34336;48.270;16.716;2023-01-31T13:03:08;77083.59;;;18.16;49.51
48555;BME280;34336;48.270;16.716;2023-01-31T13:05:48;77106.75;;;18.16;49.51
48555;BME280;34336;48.270;16.716;2023-01-31T13:08:28;77118.31;;;18.16;50.01
48555;BME280;34336;48.270;16.716;2023-01-31T13:11:15;77110.59;;;18.16;50.18
48555;BME280;34336;48.270;16.716;2023-01-31T13:13:51;77122.16;;;18.16;50.54
48555;BME280;34336;48.270;16.716;2023-01-31T13:16:23;77108.66;;;18.16;50.38
48555;BME280;34336;48.270;16.716;2023-01-31T13:18:55;77104.81;;;18.16;51.65
48555;BME280;34336;48.270;16.716;2023-01-31T13:21:25;77099.03;;;18.16;51.41
48555;BME280;34336;48.270;16.716;2023-01-31T13:23:58;77100.97;;;18.16;51.57
48555;BME280;34336;48.270;16.716;2023-01-31T13:26:32;77099.03;;;18.16;52.23
48555;BME280;34336;48.270;16.716;2023-01-31T13:29:05;77102.88;;;18.16;52.18
48555;BME280;34336;48.270;16.716;2023-01-31T13:31:38;77097.09;;;18.16;53.84
48555;BME280;34336;48.270;16.716;2023-01-31T13:34:10;77126.00;;;18.16;57.10
48555;BME280;34336;48.270;16.716;2023-01-31T13:36:47;77145.28;;;18.16;59.08
48555;BME280;34336;48.270;16.716;2023-01-31T13:41:57;77149.13;;;18.16;60.65
48555;BME280;34336;48.270;16.716;2023-01-31T13:44:24;77154.91;;;18.16;60.92
48555;BME280;34336;48.270;16.716;2023-01-31T13:47:01;77172.28;;;18.16;61.03
48555;BME280;34336;48.270;16.716;2023-01-31T13:49:34;77160.69;;;18.16;61.29
48555;BME280;34336;48.270;16.716;2023-01-31T13:52:08;77156.84;;;18.16;61.42
48555;BME280;34336;48.270;16.716;2023-01-31T13:54:42;77160.69;;;18.16;61.56
48555;BME280;34336;48.270;16.716;2023-01-31T13:57:40;77166.47;;;18.16;61.25
48555;BME280;34336;48.270;16.716;2023-01-31T14:03:00;77176.13;;;18.16;61.66
48555;BME280;34336;48.270;16.716;2023-01-31T14:13:46;77210.81;;;18.16;60.58
48555;BME280;34336;48.270;16.716;2023-01-31T14:19:00;77205.03;;;18.16;60.89
48555;BME280;34336;48.270;16.716;2023-01-31T14:23:59;77199.25;;;18.16;61.09
48555;BME280;34336;48.270;16.716;2023-01-31T14:29:16;77185.75;;;18.16;60.72
48555;BME280;34336;48.270;16.716;2023-01-31T14:31:45;77206.97;;;18.16;60.73
48555;BME280;34336;48.270;16.716;2023-01-31T14:34:18;77197.31;;;18.16;60.43
48555;BME280;34336;48.270;16.716;2023-01-31T14:37:06;77199.25;;;18.16;60.56
48555;BME280;34336;48.270;16.716;2023-01-31T14:40:01;77199.25;;;18.16;60.25
48555;BME280;34336;48.270;16.716;2023-01-31T14:42:55;77199.25;;;18.16;60.73
48555;BME280;34336;48.270;16.716;2023-01-31T14:45:47;77195.41;;;18.16;60.60
48555;BME280;34336;48.270;16.716;2023-01-31T14:48:36;77205.03;;;18.16;60.82
48555;BME280;34336;48.270;16.716;2023-01-31T14:53:56;77218.53;;;18.16;60.21